Time;durP1;ratioP1;P1;durP2;ratioP2;P2;SDS_P1;SDS_P2;PMS_P1;PMS_P2;Temp;Humidity;BMP_temperature;BMP_pressure;BME280_temperature;BME280_humidity;BME280_pressure;Samples;Min_cycle;Max_cycle;Signal;HPM_P1;HPM_P2
2023/08/24 00:00:33;;;;;;;6.90;2.80;;;;;;;23.91;53.80;100691.09;5074358;28;20206;-66
2023/08/24 00:03:02;;;;;;;6.07;2.75;;;;;;;23.90;53.58;100678.59;5073359;28;20207;-67
2023/08/24 00:05:34;;;;;;;5.75;2.78;;;;;;;23.91;53.31;100679.41;5072002;28;20613;-66
2023/08/24 00:08:02;;;;;;;4.93;2.65;;;;;;;23.89;53.35;100674.22;5073160;28;20316;-67
2023/08/24 00:10:31;;;;;;;11.18;3.05;;;;;;;23.87;53.72;100670.91;5073403;28;20206;-66
2023/08/24 00:12:59;;;;;;;5.88;2.65;;;;;;;23.84;53.72;100671.38;5076850;28;20289;-65
2023/08/24 00:15:26;;;;;;;6.28;2.55;;;;;;;23.81;53.54;100665.59;5071591;28;20234;-62
2023/08/24 00:17:54;;;;;;;5.68;2.97;;;;;;;23.80;53.20;100658.53;5068426;28;20198;-65
2023/08/24 00:20:22;;;;;;;4.22;2.70;;;;;;;23.81;52.99;100654.78;5071749;28;20219;-66
2023/08/24 00:22:50;;;;;;;5.05;2.90;;;;;;;23.79;53.02;100652.28;5073187;28;20280;-64
2023/08/24 00:25:18;;;;;;;9.25;3.00;;;;;;;23.77;53.45;100653.56;5074986;28;20376;-63
2023/08/24 00:27:47;;;;;;;5.97;2.72;;;;;;;23.77;53.19;100648.16;5073089;28;20238;-67
2023/08/24 00:30:17;;;;;;;7.95;2.80;;;;;;;23.76;53.19;100657.31;5074619;28;21114;-62
2023/08/24 00:32:44;;;;;;;6.47;2.85;;;;;;;23.76;53.08;100673.56;5074045;28;20315;-68
2023/08/24 00:35:12;;;;;;;5.90;2.60;;;;;;;23.74;52.26;100675.72;5073302;28;20215;-64
2023/08/24 00:37:40;;;;;;;6.90;2.88;;;;;;;23.69;52.09;100684.50;5072687;28;20203;-62
2023/08/24 00:40:09;;;;;;;7.28;2.50;;;;;;;23.65;51.93;100696.84;5075338;28;20676;-66
2023/08/24 00:42:41;;;;;;;6.95;2.83;;;;;;;23.58;52.07;100699.63;5068810;28;20230;-64
2023/08/24 00:45:11;;;;;;;4.88;2.90;;;;;;;23.60;51.88;100697.53;5073967;28;20260;-67
2023/08/24 00:47:42;;;;;;;4.15;2.53;;;;;;;23.65;52.03;100694.16;5072072;28;20294;-63
2023/08/24 00:50:10;;;;;;;5.20;2.67;;;;;;;23.64;51.48;100687.09;5071916;28;20685;-63
2023/08/24 00:52:40;;;;;;;5.22;2.30;;;;;;;23.66;51.37;100692.28;5069089;28;20207;-61
2023/08/24 00:55:10;;;;;;;5.07;2.75;;;;;;;23.67;51.43;100678.47;5069469;28;20286;-63
2023/08/24 00:57:38;;;;;;;7.68;2.90;;;;;;;23.68;51.42;100682.03;5072106;28;20203;-65
2023/08/24 01:00:09;;;;;;;7.38;3.17;;;;;;;23.65;51.76;100687.91;5073939;28;20214;-68
2023/08/24 01:02:39;;;;;;;5.40;2.90;;;;;;;23.65;51.17;100679.78;5069587;28;20334;-65
2023/08/24 01:05:08;;;;;;;5.47;2.70;;;;;;;23.66;51.63;100690.38;5070708;28;20234;-64
2023/08/24 01:07:38;;;;;;;6.28;3.50;;;;;;;23.67;51.81;100691.19;5068344;28;20291;-66
2023/08/24 01:10:08;;;;;;;9.05;2.75;;;;;;;23.66;51.67;100676.03;5071482;28;20997;-65
2023/08/24 01:12:50;;;;;;;4.90;3.15;;;;;;;23.65;52.15;100688.75;5073829;28;20203;-64
2023/08/24 01:15:23;;;;;;;4.30;2.63;;;;;;;23.61;52.59;100691.06;5076571;28;20202;-63
2023/08/24 01:17:53;;;;;;;6.50;3.85;;;;;;;23.61;52.26;100691.06;5070181;28;20986;-64
2023/08/24 01:20:21;;;;;;;6.32;2.75;;;;;;;23.60;52.45;100694.81;5072212;28;20211;-66
2023/08/24 01:22:56;;;;;;;3.75;2.35;;;;;;;23.61;52.85;100701.88;5073754;28;20304;-65
2023/08/24 01:25:36;;;;;;;3.95;2.40;;;;;;;23.56;52.83;100698.22;5073790;28;20215;-64
2023/08/24 01:28:07;;;;;;;8.40;2.90;;;;;;;23.54;52.87;100693.03;5070984;28;20677;-64
2023/08/24 01:30:35;;;;;;;4.60;2.72;;;;;;;23.53;52.87;100691.38;5074206;28;20233;-67
2023/08/24 01:33:04;;;;;;;4.72;2.63;;;;;;;23.50;53.19;100696.41;5069089;28;20208;-69
2023/08/24 01:35:32;;;;;;;5.50;2.70;;;;;;;23.48;53.12;100695.81;5072377;28;20587;-69
2023/08/24 01:38:02;;;;;;;10.65;2.92;;;;;;;23.48;53.20;100695.81;5070938;28;20219;-62
2023/08/24 01:40:39;;;;;;;7.63;2.72;;;;;;;23.44;53.20;100694.59;5070634;28;20199;-64
2023/08/24 01:43:11;;;;;;;4.57;2.80;;;;;;;23.41;53.03;100695.84;5071186;28;20227;-64
2023/08/24 01:45:42;;;;;;;8.05;3.00;;;;;;;23.40;52.88;100694.19;5073178;28;20294;-63
2023/08/24 01:48:13;;;;;;;5.65;2.63;;;;;;;23.40;53.27;100686.09;5071798;28;20196;-62
2023/08/24 01:50:42;;;;;;;4.90;2.50;;;;;;;23.38;53.64;100693.63;5072529;28;20587;-67
2023/08/24 01:53:10;;;;;;;5.28;2.83;;;;;;;23.35;53.61;100682.41;5072050;28;20210;-61
2023/08/24 01:55:38;;;;;;;5.88;2.80;;;;;;;23.32;53.86;100674.75;5072979;28;20231;-66
2023/08/24 01:58:05;;;;;;;6.40;2.85;;;;;;;23.29;53.79;100678.75;5073266;28;20705;-64
2023/08/24 02:00:34;;;;;;;5.93;2.75;;;;;;;23.28;53.93;100671.69;5072512;28;20302;-63
2023/08/24 02:03:03;;;;;;;8.75;3.25;;;;;;;23.26;54.02;100665.66;5068493;28;20199;-70
2023/08/24 02:05:30;;;;;;;6.50;3.17;;;;;;;23.26;53.74;100668.38;5071533;28;20313;-64
2023/08/24 02:07:59;;;;;;;7.15;3.17;;;;;;;23.24;53.98;100678.59;5071184;28;20292;-65
2023/08/24 02:10:27;;;;;;;9.88;3.03;;;;;;;23.24;54.01;100671.28;5071206;28;20231;-67
2023/08/24 02:12:55;;;;;;;11.30;2.85;;;;;;;23.22;53.74;100661.75;5074620;28;20202;-64
2023/08/24 02:15:22;;;;;;;8.35;2.60;;;;;;;23.23;53.68;100666.94;5071138;28;20217;-66
2023/08/24 02:17:51;;;;;;;7.88;3.28;;;;;;;23.22;54.05;100661.75;5069262;28;20209;-63
2023/08/24 02:20:20;;;;;;;5.95;2.70;;;;;;;23.23;54.37;100664.22;5073506;28;20712;-65
2023/08/24 02:22:48;;;;;;;4.70;2.85;;;;;;;23.22;53.98;100656.34;5069823;28;20204;-65
2023/08/24 02:25:15;;;;;;;4.88;2.80;;;;;;;23.18;54.02;100658.69;5072515;28;20273;-63
2023/08/24 02:27:43;;;;;;;7.22;3.03;;;;;;;23.18;53.97;100660.56;5068325;28;20249;-68
2023/08/24 02:30:12;;;;;;;4.57;3.10;;;;;;;23.16;54.22;100657.25;5071893;28;20346;-63
2023/08/24 02:32:40;;;;;;;7.28;2.90;;;;;;;23.17;54.53;100650.78;5071239;28;20586;-66
2023/08/24 02:35:10;;;;;;;5.32;2.90;;;;;;;23.14;54.61;100652.06;5068645;28;20207;-62
2023/08/24 02:37:38;;;;;;;8.15;3.20;;;;;;;23.10;54.64;100658.16;5074609;28;20290;-64
2023/08/24 02:40:09;;;;;;;7.93;3.10;;;;;;;23.09;54.52;100656.50;5070286;28;20311;-63
2023/08/24 02:42:36;;;;;;;5.65;2.80;;;;;;;23.10;54.53;100641.94;5077272;28;20313;-69
2023/08/24 02:45:05;;;;;;;5.63;3.20;;;;;;;23.07;54.95;100645.06;5077225;28;20204;-68
2023/08/24 02:47:32;;;;;;;7.15;3.28;;;;;;;23.02;55.46;100647.63;5076290;28;20207;-64
2023/08/24 02:50:00;;;;;;;6.25;2.92;;;;;;;23.01;55.37;100648.69;5074688;28;20223;-61
2023/08/24 02:52:29;;;;;;;9.65;3.20;;;;;;;23.00;55.73;100647.03;5076114;28;20294;-64
2023/08/24 02:54:57;;;;;;;7.38;3.40;;;;;;;22.99;55.61;100653.50;5074268;28;20842;-66
2023/08/24 02:57:25;;;;;;;7.07;3.03;;;;;;;22.96;55.48;100653.94;5071608;28;20420;-61
2023/08/24 02:59:52;;;;;;;8.43;3.20;;;;;;;22.93;55.87;100654.41;5073130;28;20199;-65
2023/08/24 03:02:20;;;;;;;9.60;3.65;;;;;;;22.94;56.32;100651.47;5072417;28;20323;-64
2023/08/24 03:04:48;;;;;;;7.10;2.88;;;;;;;22.97;56.04;100642.06;5074681;28;20229;-64
2023/08/24 03:07:16;;;;;;;8.65;3.40;;;;;;;22.98;56.26;100636.44;5074617;28;20259;-68
2023/08/24 03:09:45;;;;;;;6.20;3.40;;;;;;;22.95;56.71;100619.84;5074450;28;20234;-64
2023/08/24 03:12:13;;;;;;;7.47;2.97;;;;;;;22.89;57.46;100598.06;5073036;28;20231;-66
2023/08/24 03:14:41;;;;;;;5.80;3.25;;;;;;;22.83;58.38;100585.44;5073064;28;20635;-62
2023/08/24 03:17:08;;;;;;;6.30;3.25;;;;;;;22.82;59.66;100559.47;5073264;28;20207;-65
2023/08/24 03:19:36;;;;;;;7.68;3.40;;;;;;;22.80;59.81;100556.16;5073764;28;20211;-68
2023/08/24 03:22:04;;;;;;;8.18;3.88;;;;;;;22.75;60.03;100556.00;5075176;28;20712;-64
2023/08/24 03:24:31;;;;;;;8.45;3.80;;;;;;;22.72;60.79;100548.31;5071014;28;20275;-65
2023/08/24 03:27:00;;;;;;;8.80;4.05;;;;;;;22.68;60.48;100544.44;5074355;28;20294;-66
2023/08/24 03:29:28;;;;;;;8.00;3.67;;;;;;;22.67;60.87;100545.47;5075574;28;20292;-63
2023/08/24 03:31:56;;;;;;;7.77;4.17;;;;;;;22.62;61.54;100544.47;5073585;28;20294;-66
2023/08/24 03:34:24;;;;;;;5.63;3.60;;;;;;;22.68;61.42;100555.22;5072620;28;20269;-64
2023/08/24 03:36:51;;;;;;;7.78;3.85;;;;;;;22.73;62.29;100549.97;5070873;28;20199;-65
2023/08/24 03:39:19;;;;;;;9.25;4.15;;;;;;;22.72;62.55;100555.59;5072723;28;20235;-68
2023/08/24 03:41:47;;;;;;;9.10;3.40;;;;;;;22.74;61.93;100565.16;5075589;28;20771;-64
2023/08/24 03:44:16;;;;;;;6.80;4.00;;;;;;;22.76;62.10;100570.34;5073810;28;20305;-65
2023/08/24 03:46:43;;;;;;;7.93;3.65;;;;;;;22.78;62.67;100558.25;5072775;28;20285;-64
2023/08/24 03:49:11;;;;;;;7.72;4.20;;;;;;;22.81;61.86;100562.38;5071568;28;20225;-65
2023/08/24 03:51:39;;;;;;;6.20;3.67;;;;;;;22.83;61.64;100555.72;5074230;28;20961;-63
2023/08/24 03:54:07;;;;;;;5.28;3.33;;;;;;;22.85;62.00;100564.44;5068030;28;20204;-66
2023/08/24 03:56:34;;;;;;;8.90;4.10;;;;;;;22.84;62.20;100549.25;5072104;28;20213;-64
2023/08/24 03:59:02;;;;;;;9.95;5.28;;;;;;;22.87;61.92;100547.94;5073722;28;20266;-64
2023/08/24 04:01:31;;;;;;;7.68;3.80;;;;;;;22.89;61.96;100554.78;5073319;28;20238;-64
2023/08/24 04:03:59;;;;;;;6.60;3.67;;;;;;;22.89;61.76;100549.38;5075730;28;20230;-63
2023/08/24 04:06:28;;;;;;;8.67;3.93;;;;;;;22.91;61.91;100551.88;5075847;28;20231;-65
2023/08/24 04:08:56;;;;;;;8.63;4.05;;;;;;;22.90;61.95;100547.50;5075501;28;20215;-66
2023/08/24 04:11:24;;;;;;;9.50;5.75;;;;;;;22.92;61.88;100547.28;5073780;28;20233;-67
2023/08/24 04:13:52;;;;;;;10.10;4.72;;;;;;;22.92;61.97;100541.88;5071212;28;20200;-65
2023/08/24 04:16:19;;;;;;;6.50;3.70;;;;;;;22.92;62.31;100547.28;5073682;28;20268;-64
2023/08/24 04:18:48;;;;;;;8.57;4.25;;;;;;;22.92;62.07;100552.69;5071183;28;20272;-69
2023/08/24 04:21:16;;;;;;;5.75;3.70;;;;;;;22.91;61.87;100551.88;5071290;28;21243;-67
2023/08/24 04:23:45;;;;;;;10.80;4.05;;;;;;;22.89;61.82;100549.38;5068023;28;20204;-64
2023/08/24 04:26:13;;;;;;;12.30;3.80;;;;;;;22.91;62.12;100540.22;5070838;28;20800;-63
2023/08/24 04:28:41;;;;;;;9.77;4.05;;;;;;;22.87;61.90;100548.78;5072674;28;20303;-66
2023/08/24 04:31:09;;;;;;;8.25;3.97;;;;;;;22.85;62.08;100547.38;5074019;28;20230;-65
2023/08/24 04:33:37;;;;;;;8.57;3.88;;;;;;;22.78;62.33;100547.44;5070570;28;20207;-65
2023/08/24 04:36:06;;;;;;;9.90;4.05;;;;;;;22.78;62.66;100550.13;5072221;28;20888;-64
2023/08/24 04:38:34;;;;;;;8.50;4.00;;;;;;;22.81;62.43;100546.16;5073525;28;20207;-65
2023/08/24 04:41:02;;;;;;;6.32;4.13;;;;;;;22.83;62.49;100546.78;5074994;28;20297;-64
2023/08/24 04:43:29;;;;;;;6.65;4.15;;;;;;;22.80;62.83;100545.34;5070675;28;20258;-66
2023/08/24 04:45:57;;;;;;;9.15;4.30;;;;;;;22.79;63.17;100554.50;5074333;28;20737;-65
2023/08/24 04:48:26;;;;;;;10.00;4.22;;;;;;;22.77;62.73;100548.50;5072682;28;20195;-65
2023/08/24 04:50:56;;;;;;;8.35;4.20;;;;;;;22.80;63.15;100545.34;5071394;28;20258;-63
2023/08/24 04:53:25;;;;;;;6.63;4.35;;;;;;;22.80;63.92;100550.75;5075026;28;20213;-66
2023/08/24 04:55:53;;;;;;;6.38;4.03;;;;;;;22.76;64.01;100554.97;5074541;28;20302;-66
2023/08/24 04:58:21;;;;;;;6.03;4.10;;;;;;;22.73;63.91;100563.47;5072081;28;20253;-65
2023/08/24 05:00:49;;;;;;;7.80;4.43;;;;;;;22.72;63.87;100563.69;5073150;28;20786;-66
2023/08/24 05:03:17;;;;;;;14.68;4.40;;;;;;;22.74;64.01;100567.00;5071029;28;20739;-63
2023/08/24 05:05:46;;;;;;;10.50;4.63;;;;;;;22.72;64.18;100572.63;5070976;28;20207;-66
2023/08/24 05:08:13;;;;;;;12.45;4.50;;;;;;;22.73;64.17;100593.22;5071656;28;20551;-68
2023/08/24 05:10:43;;;;;;;11.32;4.15;;;;;;;22.74;64.88;100613.81;5074856;28;20286;-66
2023/08/24 05:13:10;;;;;;;8.07;4.22;;;;;;;22.76;64.56;100629.81;5069741;28;20303;-68
2023/08/24 05:15:38;;;;;;;12.07;4.63;;;;;;;22.74;64.84;100642.69;5070187;28;20265;-63
2023/08/24 05:18:06;;;;;;;7.82;4.60;;;;;;;22.76;65.21;100656.84;5070874;28;20200;-65
2023/08/24 05:20:34;;;;;;;8.07;4.40;;;;;;;22.78;64.91;100666.38;5069883;28;20247;-66
2023/08/24 05:23:01;;;;;;;8.82;4.30;;;;;;;22.82;64.62;100681.13;5075515;28;20212;-63
2023/08/24 05:25:29;;;;;;;9.40;4.38;;;;;;;22.83;64.09;100698.16;5070270;28;20203;-65
2023/08/24 05:27:58;;;;;;;11.80;4.53;;;;;;;22.84;64.00;100699.81;5071626;28;20228;-65
2023/08/24 05:30:29;;;;;;;10.20;4.43;;;;;;;22.87;63.90;100716.41;5070373;28;20341;-66
2023/08/24 05:32:57;;;;;;;10.38;5.05;;;;;;;22.91;63.71;100729.50;5071115;28;20218;-67
2023/08/24 05:35:27;;;;;;;9.57;4.75;;;;;;;22.94;63.60;100723.66;5067989;28;20212;-63
2023/08/24 05:37:55;;;;;;;9.98;4.75;;;;;;;22.97;63.54;100731.31;5070317;28;20199;-66
2023/08/24 05:40:22;;;;;;;11.10;4.97;;;;;;;23.01;63.45;100735.22;5067808;28;20747;-67
2023/08/24 05:42:50;;;;;;;8.00;4.68;;;;;;;23.02;64.06;100736.88;5071101;28;20578;-65
2023/08/24 05:45:19;;;;;;;7.95;4.65;;;;;;;23.05;64.12;100726.44;5070867;28;20231;-64
2023/08/24 05:47:47;;;;;;;12.38;4.68;;;;;;;23.08;64.14;100714.34;5071620;28;20199;-63
2023/08/24 05:50:15;;;;;;;7.22;4.82;;;;;;;23.08;64.07;100711.66;5070584;28;20198;-67
2023/08/24 05:52:42;;;;;;;8.50;4.75;;;;;;;23.10;64.30;100707.66;5074900;28;20219;-64
2023/08/24 05:55:10;;;;;;;7.22;4.88;;;;;;;23.12;64.98;100710.16;5071014;28;20402;-62
2023/08/24 05:57:38;;;;;;;7.93;5.32;;;;;;;23.13;64.79;100701.00;5072250;28;20225;-65
2023/08/24 06:00:09;;;;;;;9.73;4.80;;;;;;;23.11;64.97;100697.69;5069233;28;20207;-64
2023/08/24 06:02:40;;;;;;;7.07;4.75;;;;;;;23.10;65.25;100696.84;5072913;28;20287;-64
2023/08/24 06:05:08;;;;;;;10.85;5.35;;;;;;;23.10;65.22;100688.75;5069252;28;20207;-64
2023/08/24 06:07:37;;;;;;;11.63;5.40;;;;;;;23.12;65.09;100678.53;5067867;28;20216;-64
2023/08/24 06:10:05;;;;;;;6.85;5.13;;;;;;;23.14;65.41;100664.75;5071824;28;20235;-68
2023/08/24 06:12:33;;;;;;;10.88;5.00;;;;;;;23.14;64.98;100664.75;5073918;28;20753;-64
2023/08/24 06:15:03;;;;;;;16.55;5.57;;;;;;;23.17;65.00;100669.72;5069480;28;20982;-65
2023/08/24 06:17:31;;;;;;;8.40;5.00;;;;;;;23.25;64.51;100658.59;5069100;28;20299;-68
2023/08/24 06:20:00;;;;;;;12.52;5.20;;;;;;;23.29;64.24;100646.28;5072177;28;20296;-66
2023/08/24 06:22:28;;;;;;;10.60;5.28;;;;;;;23.30;63.97;100636.28;5072385;28;20219;-66
2023/08/24 06:24:59;;;;;;;8.07;5.10;;;;;;;23.27;63.95;100627.56;5070940;28;20290;-62
2023/08/24 06:27:27;;;;;;;13.73;5.47;;;;;;;23.30;64.78;100626.28;5072464;28;20695;-63
2023/08/24 06:29:55;;;;;;;11.43;6.03;;;;;;;23.33;64.60;100625.00;5072238;28;20234;-61
2023/08/24 06:32:22;;;;;;;14.00;5.82;;;;;;;23.35;64.70;100620.19;5070366;28;20783;-68
2023/08/24 06:34:50;;;;;;;10.77;5.40;;;;;;;23.34;64.19;100622.06;5071985;28;20329;-63
2023/08/24 06:37:19;;;;;;;6.95;5.20;;;;;;;23.32;63.71;100613.34;5070663;28;20207;-62
2023/08/24 06:39:47;;;;;;;11.82;5.22;;;;;;;23.36;63.96;100625.38;5074092;28;20199;-63
2023/08/24 06:42:15;;;;;;;6.75;5.32;;;;;;;23.37;63.87;100620.78;5070083;28;20227;-64
2023/08/24 06:44:43;;;;;;;11.05;5.40;;;;;;;23.41;63.63;100625.50;5071632;28;20203;-63
2023/08/24 06:47:10;;;;;;;8.30;5.20;;;;;;;23.43;63.62;100628.81;5071599;28;20202;-63
2023/08/24 06:49:38;;;;;;;12.07;5.20;;;;;;;23.51;63.49;100625.00;5070204;28;20514;-66
2023/08/24 06:52:06;;;;;;;10.30;5.32;;;;;;;23.53;63.63;100618.31;5065377;28;20223;-63
2023/08/24 06:54:35;;;;;;;9.05;5.53;;;;;;;23.60;63.21;100616.31;5070482;28;20215;-63
2023/08/24 06:57:03;;;;;;;10.95;4.90;;;;;;;23.66;63.39;100614.56;5067777;28;20204;-64
2023/08/24 06:59:31;;;;;;;9.38;5.22;;;;;;;23.69;63.20;100607.88;5070121;28;20827;-64
2023/08/24 07:01:59;;;;;;;12.55;5.57;;;;;;;23.71;63.33;100603.06;5067774;28;20215;-64
2023/08/24 07:04:27;;;;;;;7.32;5.07;;;;;;;23.76;63.04;100603.19;5069693;28;20272;-63
2023/08/24 07:06:55;;;;;;;10.63;5.22;;;;;;;23.76;62.80;100605.88;5068571;28;20215;-62
2023/08/24 07:09:23;;;;;;;9.13;5.20;;;;;;;23.77;62.67;100610.25;5069762;28;20211;-66
2023/08/24 07:11:52;;;;;;;9.23;5.68;;;;;;;23.83;63.17;100603.94;5070900;28;20223;-64
2023/08/24 07:14:20;;;;;;;10.32;5.60;;;;;;;23.89;63.43;100603.81;5068217;28;20920;-66
2023/08/24 07:16:48;;;;;;;10.35;5.10;;;;;;;23.92;62.97;100603.34;5068522;28;20290;-66
2023/08/24 07:19:16;;;;;;;8.73;5.20;;;;;;;24.01;63.31;100603.84;5066416;28;20218;-66
2023/08/24 07:21:44;;;;;;;9.25;5.55;;;;;;;24.10;64.33;100598.91;5071514;28;20257;-64
2023/08/24 07:24:12;;;;;;;7.80;5.40;;;;;;;24.19;63.77;100608.31;5068147;28;20207;-63
2023/08/24 07:26:41;;;;;;;8.50;5.70;;;;;;;24.24;63.03;100617.44;5068523;28;20306;-63
2023/08/24 07:29:10;;;;;;;7.15;5.50;;;;;;;24.29;62.54;100636.53;5071640;28;20674;-64
2023/08/24 07:31:38;;;;;;;11.85;5.60;;;;;;;24.31;62.28;100656.09;5072826;28;20672;-65
2023/08/24 07:34:06;;;;;;;8.63;5.38;;;;;;;24.29;62.04;100643.84;5069182;28;20199;-64
2023/08/24 07:36:34;;;;;;;6.65;4.47;;;;;;;24.28;62.32;100640.28;5070234;28;20222;-63
2023/08/24 07:39:02;;;;;;;9.10;4.80;;;;;;;24.26;62.90;100644.31;5069129;28;20207;-61
2023/08/24 07:41:30;;;;;;;6.68;4.60;;;;;;;24.25;62.23;100648.91;5072601;28;20299;-63
2023/08/24 07:43:57;;;;;;;8.80;4.90;;;;;;;24.21;62.59;100655.00;5075104;28;20211;-64
2023/08/24 07:46:26;;;;;;;7.65;4.07;;;;;;;24.15;62.25;100645.91;5071259;28;20329;-65
2023/08/24 07:48:54;;;;;;;9.20;4.88;;;;;;;24.14;63.14;100655.09;5071727;28;20376;-61
2023/08/24 07:51:22;;;;;;;7.35;4.57;;;;;;;24.10;62.74;100645.78;5074408;28;20223;-65
2023/08/24 07:53:51;;;;;;;9.43;3.97;;;;;;;24.10;62.89;100636.84;5074484;28;20266;-64
2023/08/24 07:56:19;;;;;;;7.53;4.15;;;;;;;24.08;63.68;100622.69;5070244;28;20693;-64
2023/08/24 07:58:47;;;;;;;6.00;4.05;;;;;;;24.03;63.68;100604.41;5069969;28;20214;-64
2023/08/24 08:01:15;;;;;;;13.52;3.75;;;;;;;24.04;63.79;100584.41;5073111;28;20338;-64
2023/08/24 08:03:44;;;;;;;8.45;3.88;;;;;;;24.07;62.80;100565.00;5071111;28;20215;-62
2023/08/24 08:06:13;;;;;;;8.57;3.80;;;;;;;24.14;62.47;100548.63;5071784;28;21029;-66
2023/08/24 08:08:41;;;;;;;8.10;3.88;;;;;;;24.18;62.22;100525.41;5068175;28;20291;-67
2023/08/24 08:11:08;;;;;;;13.05;4.05;;;;;;;24.21;61.82;100508.72;5069833;28;20564;-65
2023/08/24 08:13:36;;;;;;;17.50;4.03;;;;;;;24.20;62.53;100505.13;5069641;28;20239;-63
2023/08/24 08:16:05;;;;;;;10.38;4.43;;;;;;;24.21;62.41;100492.44;5068231;28;20231;-65
2023/08/24 08:18:33;;;;;;;8.52;3.92;;;;;;;24.23;60.92;100490.34;5071814;28;20326;-62
2023/08/24 08:21:10;;;;;;;7.93;4.07;;;;;;;24.23;61.38;100491.16;5065588;28;20206;-62
2023/08/24 08:23:37;;;;;;;8.52;4.10;;;;;;;24.30;61.47;100491.03;5071882;28;20206;-67
2023/08/24 08:26:05;;;;;;;6.32;4.43;;;;;;;24.40;61.03;100493.97;5068317;28;20227;-64
2023/08/24 08:28:34;;;;;;;9.45;4.70;;;;;;;24.38;61.11;100496.91;5067590;28;20306;-63
2023/08/24 08:31:03;;;;;;;6.63;4.20;;;;;;;24.39;60.90;100511.28;5067924;28;20199;-65
2023/08/24 08:33:31;;;;;;;8.80;4.78;;;;;;;24.41;61.03;100514.59;5075102;28;20234;-65
2023/08/24 08:35:58;;;;;;;6.72;4.38;;;;;;;24.64;60.48;100519.13;5070573;28;20211;-64
2023/08/24 08:38:29;;;;;;;6.15;3.58;;;;;;;24.99;59.23;100521.78;5070443;28;20274;-64
2023/08/24 08:41:02;;;;;;;9.52;4.43;;;;;;;25.11;58.84;100514.44;5069474;28;20231;-63
2023/08/24 08:43:31;;;;;;;8.63;4.40;;;;;;;25.16;59.18;100524.53;5069570;28;20655;-65
2023/08/24 08:46:00;;;;;;;10.10;4.70;;;;;;;25.17;59.17;100521.59;5073474;28;20209;-63
2023/08/24 08:48:31;;;;;;;9.07;4.78;;;;;;;25.27;59.54;100524.50;5070559;28;20278;-65
2023/08/24 08:51:01;;;;;;;5.95;4.30;;;;;;;25.44;58.59;100524.53;5071199;28;20287;-64
2023/08/24 08:53:30;;;;;;;8.05;4.50;;;;;;;25.62;58.15;100516.19;5070888;28;21006;-65
2023/08/24 08:56:03;;;;;;;9.35;4.30;;;;;;;25.85;57.80;100504.38;5069655;28;20203;-65
2023/08/24 08:58:32;;;;;;;8.32;4.15;;;;;;;26.07;56.42;100501.69;5069130;28;21066;-66
2023/08/24 09:01:03;;;;;;;10.27;4.80;;;;;;;26.33;55.37;100490.16;5068690;28;20215;-66
2023/08/24 09:03:32;;;;;;;9.90;4.57;;;;;;;26.57;55.01;100486.09;5076000;28;20230;-66
2023/08/24 09:06:00;;;;;;;9.68;4.05;;;;;;;26.86;54.03;100466.88;5077503;28;20226;-66
2023/08/24 09:08:30;;;;;;;10.23;4.45;;;;;;;27.24;52.34;100463.22;5073918;28;20208;-67
2023/08/24 09:10:59;;;;;;;8.50;4.07;;;;;;;27.47;52.15;100440.25;5076794;28;20230;-66
2023/08/24 09:13:27;;;;;;;13.43;4.20;;;;;;;27.80;50.95;100442.72;5074655;28;20293;-66
2023/08/24 09:15:55;;;;;;;14.10;4.50;;;;;;;27.95;51.00;100428.38;5074118;28;20238;-67
2023/08/24 09:18:22;;;;;;;9.70;4.30;;;;;;;28.06;51.23;100439.06;5071093;28;20766;-67
2023/08/24 09:20:50;;;;;;;5.43;3.88;;;;;;;28.21;50.84;100434.81;5074007;28;20338;-66
2023/08/24 09:23:19;;;;;;;10.70;3.97;;;;;;;28.37;50.01;100431.06;5069714;28;20239;-68
2023/08/24 09:25:49;;;;;;;8.55;4.25;;;;;;;28.46;49.73;100421.31;5073042;28;20214;-65
2023/08/24 09:28:24;;;;;;;9.18;3.75;;;;;;;28.64;49.84;100418.09;5069461;28;20540;-66
2023/08/24 09:30:54;;;;;;;10.43;4.35;;;;;;;28.74;49.89;100407.22;5074320;28;20648;-68
2023/08/24 09:33:25;;;;;;;6.03;3.42;;;;;;;28.87;49.55;100415.97;5072458;28;20221;-67
2023/08/24 09:35:55;;;;;;;7.13;3.97;;;;;;;29.02;49.04;100413.28;5071456;28;20295;-66
2023/08/24 09:38:24;;;;;;;11.13;3.80;;;;;;;29.16;49.25;100419.84;5069991;28;21016;-67
2023/08/24 09:40:54;;;;;;;8.27;3.65;;;;;;;29.35;47.12;100401.03;5070589;28;20208;-67
2023/08/24 09:43:23;;;;;;;11.43;4.32;;;;;;;29.31;47.66;100402.63;5071816;28;20222;-67
2023/08/24 09:45:52;;;;;;;10.85;4.30;;;;;;;29.27;47.35;100399.66;5068973;28;20325;-72
2023/08/24 09:48:21;;;;;;;12.40;3.97;;;;;;;29.26;47.14;100400.75;5067216;28;20253;-67
2023/08/24 09:50:52;;;;;;;10.60;4.15;;;;;;;29.25;47.36;100392.81;5073751;28;20218;-65
2023/08/24 09:53:22;;;;;;;4.82;3.22;;;;;;;29.22;47.96;100391.44;5073882;28;20224;-67
2023/08/24 09:56:01;;;;;;;9.70;3.97;;;;;;;29.23;48.49;100382.16;5073899;28;20283;-65
2023/08/24 09:58:29;;;;;;;11.35;5.03;;;;;;;29.27;47.81;100369.63;5070340;28;20196;-64
2023/08/24 10:00:58;;;;;;;10.05;3.70;;;;;;;29.41;48.44;100370.72;5073682;28;20661;-66
2023/08/24 10:03:26;;;;;;;7.43;3.63;;;;;;;29.59;47.88;100373.97;5069463;28;20210;-66
2023/08/24 10:05:58;;;;;;;7.07;3.88;;;;;;;29.87;46.62;100365.16;5076462;28;20230;-65
2023/08/24 10:08:36;;;;;;;7.00;3.38;;;;;;;30.15;46.02;100358.25;5076020;28;20793;-67
2023/08/24 10:11:10;;;;;;;8.88;3.55;;;;;;;30.21;45.30;100360.69;5074736;28;20199;-66
2023/08/24 10:13:49;;;;;;;7.05;3.28;;;;;;;30.11;45.01;100351.72;5070988;28;20227;-65
2023/08/24 10:16:18;;;;;;;7.85;3.20;;;;;;;29.98;45.10;100344.13;5070493;28;20301;-65
2023/08/24 10:18:47;;;;;;;7.85;3.67;;;;;;;29.92;45.40;100351.47;5067465;28;21059;-64
2023/08/24 10:21:16;;;;;;;6.93;3.72;;;;;;;29.85;45.41;100353.69;5068050;28;20261;-64
2023/08/24 10:23:46;;;;;;;7.13;4.45;;;;;;;29.78;45.59;100344.97;5071837;28;20677;-63
2023/08/24 10:26:17;;;;;;;6.15;3.47;;;;;;;29.79;46.00;100335.69;5069991;28;20567;-64
2023/08/24 10:28:46;;;;;;;11.40;3.40;;;;;;;29.77;46.39;100343.31;5069298;28;20249;-62
2023/08/24 10:31:14;;;;;;;8.80;3.20;;;;;;;29.83;45.99;100347.66;5066870;28;20235;-64
2023/08/24 10:33:44;;;;;;;11.70;4.45;;;;;;;29.84;45.86;100350.13;5068897;28;20241;-63
2023/08/24 10:36:14;;;;;;;7.97;3.58;;;;;;;29.91;45.07;100336.16;5071362;28;20212;-64
2023/08/24 10:38:42;;;;;;;7.10;3.83;;;;;;;29.85;45.37;100329.09;5073462;28;20287;-64
2023/08/24 10:41:13;;;;;;;7.93;3.83;;;;;;;30.04;44.58;100316.47;5068226;28;20257;-64
2023/08/24 10:43:50;;;;;;;13.20;3.95;;;;;;;30.34;44.65;100309.22;5072558;28;20230;-65
2023/08/24 10:46:18;;;;;;;7.43;3.65;;;;;;;30.51;43.68;100301.44;5071107;28;20204;-64
2023/08/24 10:48:59;;;;;;;4.95;3.17;;;;;;;30.35;43.27;100299.88;5071501;28;20210;-64
2023/08/24 10:51:28;;;;;;;8.07;3.42;;;;;;;30.27;43.89;100299.38;5071423;28;20639;-64
2023/08/24 10:53:57;;;;;;;5.50;3.45;;;;;;;30.23;43.25;100298.34;5070750;28;20242;-64
2023/08/24 10:56:34;;;;;;;6.38;3.30;;;;;;;31.58;41.08;100295.88;5071261;28;20213;-64
2023/08/24 10:59:14;;;;;;;9.55;3.95;;;;;;;33.46;35.99;100291.19;5065199;28;20206;-67
2023/08/24 11:01:43;;;;;;;6.15;3.50;;;;;;;33.67;36.28;100292.44;5070390;28;20211;-67
2023/08/24 11:04:12;;;;;;;6.25;3.30;;;;;;;36.07;31.49;100287.03;5074769;28;20237;-66
2023/08/24 11:06:53;;;;;;;9.50;3.35;;;;;;;36.13;30.55;100291.28;5074003;28;20283;-66
2023/08/24 11:09:22;;;;;;;8.15;3.20;;;;;;;34.63;32.99;100287.59;5078718;28;20218;-64
2023/08/24 11:11:58;;;;;;;11.23;3.95;;;;;;;33.44;35.63;100291.50;5074214;28;20211;-66
2023/08/24 11:14:29;;;;;;;6.05;3.60;;;;;;;32.72;36.10;100295.78;5074722;28;20225;-66
2023/08/24 11:16:59;;;;;;;8.68;3.47;;;;;;;33.53;35.33;100281.44;5074503;28;20587;-66
2023/08/24 11:19:27;;;;;;;7.35;3.28;;;;;;;35.05;32.49;100266.19;5074911;28;20207;-66
2023/08/24 11:21:54;;;;;;;9.65;3.67;;;;;;;35.52;31.87;100266.59;5074428;28;20252;-64
2023/08/24 11:24:23;;;;;;;6.90;3.45;;;;;;;35.19;32.32;100255.88;5075850;28;20242;-66
2023/08/24 11:26:52;;;;;;;82.78;27.00;;;;;;;34.37;36.22;100256.31;5077799;28;20294;-63
2023/08/24 11:29:20;;;;;;;8.32;4.07;;;;;;;33.48;34.81;100254.06;5075456;28;20666;-66
2023/08/24 11:31:49;;;;;;;8.20;3.75;;;;;;;32.82;37.29;100248.94;5075442;28;20285;-68